createdAt,value
2019-04-25T00:02:46.538Z,13.72
2019-04-25T00:07:51.211Z,13.55
2019-04-25T00:12:54.713Z,13.54
2019-04-25T00:17:58.347Z,13.60
2019-04-25T00:23:11.760Z,13.61
2019-04-25T00:28:15.129Z,13.46
2019-04-25T00:33:18.579Z,13.07
2019-04-25T00:38:22.280Z,12.83
2019-04-25T00:43:25.559Z,12.80
2019-04-25T00:48:28.682Z,12.74
2019-04-25T00:53:32.472Z,12.26
2019-04-25T00:58:48.915Z,11.92
2019-04-25T01:03:53.630Z,12.00
2019-04-25T01:08:57.726Z,11.50
2019-04-25T01:14:02.132Z,11.59
2019-04-25T01:19:05.503Z,11.75
2019-04-25T01:24:09.786Z,11.56
2019-04-25T01:29:13.617Z,11.48
2019-04-25T01:34:19.696Z,11.56
2019-04-25T01:39:44.716Z,11.51
2019-04-25T01:44:49.553Z,11.54
2019-04-25T01:49:54.568Z,11.34
2019-04-25T01:54:58.895Z,11.48
2019-04-25T02:00:03.964Z,11.35
2019-04-25T02:05:09.407Z,11.09
2019-04-25T02:10:13.531Z,11.01
2019-04-25T02:15:18.859Z,10.62
2019-04-25T02:20:23.828Z,10.65
2019-04-25T02:25:27.207Z,10.74
2019-04-25T02:30:30.343Z,10.66
2019-04-25T02:35:34.941Z,10.63
2019-04-25T02:40:38.332Z,10.59
2019-04-25T02:46:10.383Z,10.54
2019-04-25T02:51:34.989Z,10.28
2019-04-25T02:56:39.162Z,10.35
2019-04-25T03:01:44.490Z,10.11
2019-04-25T03:06:47.667Z,9.71
2019-04-25T03:11:50.959Z,10.03
2019-04-25T03:16:54.424Z,10.45
2019-04-25T03:22:00.274Z,9.77
2019-04-25T03:27:05.193Z,10.16
2019-04-25T03:32:13.812Z,10.32
2019-04-25T03:37:14.661Z,9.55
2019-04-25T03:42:17.793Z,9.72
2019-04-25T03:47:20.902Z,10.18
2019-04-25T03:52:24.149Z,10.07
2019-04-25T03:57:27.423Z,10.02
2019-04-25T04:02:30.503Z,9.99
2019-04-25T04:07:33.885Z,9.78
2019-04-25T04:12:37.054Z,10.34
2019-04-25T04:17:48.010Z,10.20
2019-04-25T04:23:03.120Z,10.30
2019-04-25T04:28:06.342Z,10.62
2019-04-25T04:33:21.486Z,10.53
2019-04-25T04:38:15.510Z,10.58
2019-04-25T04:43:19.787Z,10.67
2019-04-25T04:48:23.267Z,10.81
2019-04-25T04:53:26.886Z,11.33
2019-04-25T04:58:30.159Z,11.43
2019-04-25T05:03:51.780Z,11.79
2019-04-25T05:09:08.585Z,12.04
2019-04-25T05:14:11.868Z,12.59
2019-04-25T05:19:15.845Z,13.00
2019-04-25T05:24:20.818Z,13.18
2019-04-25T05:29:26.496Z,13.58
2019-04-25T05:34:28.950Z,14.01
2019-04-25T05:39:33.471Z,14.47
2019-04-25T05:44:37.079Z,15.08
2019-04-25T05:49:40.214Z,15.03
2019-04-25T05:54:44.380Z,15.26
2019-04-25T05:59:47.596Z,15.56
2019-04-25T06:04:50.659Z,15.59
2019-04-25T06:10:16.080Z,15.88
2019-04-25T06:15:22.307Z,16.19
2019-04-25T06:20:30.573Z,16.59
2019-04-25T06:25:38.982Z,17.12
2019-04-25T06:30:39.044Z,17.53
2019-04-25T06:35:42.169Z,17.42
2019-04-25T06:40:46.003Z,17.61
2019-04-25T06:46:07.554Z,17.63
2019-04-25T06:51:11.042Z,17.96
2019-04-25T06:56:14.179Z,18.18
2019-04-25T07:01:17.241Z,18.76
2019-04-25T07:06:20.331Z,18.94
2019-04-25T07:11:25.046Z,19.18
2019-04-25T07:16:29.397Z,18.98
2019-04-25T07:21:34.336Z,19.25
2019-04-25T07:27:06.456Z,19.58
2019-04-25T07:32:44.042Z,19.59
2019-04-25T07:37:47.723Z,19.57
2019-04-25T07:42:50.862Z,20.49
2019-04-25T07:47:54.274Z,20.64
2019-04-25T07:52:57.848Z,21.05
2019-04-25T07:58:01.045Z,21.20
2019-04-25T08:03:05.344Z,21.40
2019-04-25T08:08:08.401Z,21.40
2019-04-25T08:13:13.295Z,21.80
2019-04-25T08:18:17.580Z,22.00
2019-04-25T08:23:23.815Z,21.80
2019-04-25T08:28:27.084Z,22.46
2019-04-25T08:33:30.258Z,22.95
2019-04-25T08:38:34.706Z,22.73
2019-04-25T08:43:39.404Z,22.88
2019-04-25T08:49:02.426Z,22.99
2019-04-25T08:54:32.506Z,23.81
2019-04-25T08:59:46.051Z,23.47
2019-04-25T09:05:04.859Z,23.20
2019-04-25T09:10:08.460Z,24.23
2019-04-25T09:15:14.078Z,23.47
2019-04-25T09:20:18.700Z,23.50
2019-04-25T09:25:23.597Z,23.47
2019-04-25T09:30:26.856Z,23.65
2019-04-25T09:35:30.017Z,23.95
2019-04-25T09:40:34.198Z,23.62
2019-04-25T09:50:54.274Z,23.94
2019-04-25T09:56:05.519Z,23.78
2019-04-25T10:01:11.927Z,24.06
2019-04-25T10:06:18.496Z,24.20
2019-04-25T10:11:21.746Z,24.21
2019-04-25T10:16:25.045Z,24.13
2019-04-25T10:21:28.543Z,23.96
2019-04-25T10:26:33.530Z,24.64
2019-04-25T10:31:37.092Z,24.46
2019-04-25T10:36:42.120Z,24.49
2019-04-25T10:41:46.747Z,24.81
2019-04-25T10:46:50.437Z,24.54
2019-04-25T10:51:53.716Z,24.28
2019-04-25T10:56:57.230Z,24.22
2019-04-25T11:02:00.409Z,24.28
2019-04-25T11:07:03.870Z,24.18
2019-04-25T11:12:10.884Z,24.85
2019-04-25T11:17:15.485Z,24.83
2019-04-25T11:22:18.835Z,24.94
2019-04-25T11:27:23.984Z,25.06
2019-04-25T11:32:28.107Z,25.07
2019-04-25T11:37:31.991Z,25.07
2019-04-25T11:42:35.173Z,25.51
2019-04-25T11:47:38.532Z,25.77
2019-04-25T11:52:41.774Z,25.61
2019-04-25T11:57:48.737Z,25.61
2019-04-25T12:02:50.495Z,25.51
2019-04-25T12:07:53.568Z,25.87
2019-04-25T12:12:57.816Z,25.95
2019-04-25T12:18:01.122Z,25.74
2019-04-25T12:23:10.253Z,25.95
2019-04-25T12:28:09.555Z,25.74
2019-04-25T12:33:20.329Z,25.99
2019-04-25T12:38:20.305Z,26.12
2019-04-25T12:43:24.605Z,26.18
2019-04-25T12:48:27.830Z,26.02
2019-04-25T12:53:30.988Z,26.40
2019-04-25T12:58:34.077Z,26.14
2019-04-25T13:03:37.247Z,26.07
2019-04-25T13:08:40.476Z,25.87
2019-04-25T13:13:43.706Z,26.20
2019-04-25T13:18:46.892Z,26.42
2019-04-25T13:23:50.151Z,26.78
2019-04-25T13:29:23.173Z,26.44
2019-04-25T13:34:36.490Z,26.53
2019-04-25T13:39:36.995Z,26.40
2019-04-25T13:44:40.275Z,26.18
2019-04-25T13:49:43.558Z,26.59
2019-04-25T13:54:47.067Z,26.36
2019-04-25T13:59:50.397Z,26.29
2019-04-25T14:04:53.719Z,26.23
2019-04-25T14:09:56.906Z,26.39
2019-04-25T14:15:00.276Z,26.37
2019-04-25T14:20:19.075Z,26.31
2019-04-25T14:25:23.010Z,26.29
2019-04-25T14:30:29.943Z,26.28
2019-04-25T14:35:33.408Z,26.19
2019-04-25T14:40:36.458Z,26.29
2019-04-25T14:45:44.295Z,26.47
2019-04-25T14:50:44.981Z,26.16
2019-04-25T14:56:10.446Z,26.22
2019-04-25T15:01:15.971Z,26.10
2019-04-25T15:06:19.294Z,26.26
2019-04-25T15:11:23.222Z,26.33
2019-04-25T15:16:27.054Z,26.62
2019-04-25T15:21:30.384Z,26.48
2019-04-25T15:26:33.508Z,26.19
2019-04-25T15:31:36.843Z,26.17
2019-04-25T15:37:00.567Z,26.18
2019-04-25T15:42:32.182Z,26.09
2019-04-25T15:47:36.196Z,25.99
2019-04-25T15:52:39.453Z,26.05
2019-04-25T15:57:42.597Z,25.90
2019-04-25T16:02:45.737Z,25.89
2019-04-25T16:07:49.024Z,26.00
2019-04-25T16:12:52.083Z,25.93
2019-04-25T16:17:56.217Z,25.94
2019-04-25T16:23:00.044Z,25.83
2019-04-25T16:28:03.262Z,25.81
2019-04-25T16:33:07.629Z,25.78
2019-04-25T16:38:11.888Z,25.49
2019-04-25T16:43:19.421Z,25.23
2019-04-25T16:48:23.013Z,25.16
2019-04-25T16:53:26.173Z,25.00
2019-04-25T16:58:29.767Z,25.00
2019-04-25T17:03:35.379Z,24.79
2019-04-25T17:08:38.451Z,24.75
2019-04-25T17:13:51.188Z,24.66
2019-04-25T17:18:58.764Z,24.34
2019-04-25T17:24:02.415Z,24.32
2019-04-25T17:29:09.820Z,24.02
2019-04-25T17:34:36.591Z,23.72
2019-04-25T17:39:42.130Z,23.50
2019-04-25T17:44:45.563Z,23.23
2019-04-25T17:49:48.986Z,23.02
2019-04-25T17:54:52.045Z,22.85
2019-04-25T17:59:55.370Z,22.59
2019-04-25T18:04:58.483Z,22.31
2019-04-25T18:10:01.701Z,22.13
2019-04-25T18:15:07.508Z,21.83
2019-04-25T18:20:17.699Z,21.66
2019-04-25T18:25:43.295Z,21.59
2019-04-25T18:30:47.702Z,21.48
2019-04-25T18:35:52.478Z,21.45
2019-04-25T18:41:07.268Z,21.30
2019-04-25T18:46:17.461Z,21.09
2019-04-25T18:51:20.681Z,20.96
2019-04-25T18:56:46.150Z,20.81
2019-04-25T19:02:07.753Z,20.55
2019-04-25T19:07:22.064Z,20.30
2019-04-25T19:12:16.135Z,19.91
2019-04-25T19:17:19.595Z,19.48
2019-04-25T19:22:23.277Z,19.12
2019-04-25T19:27:26.673Z,18.79
2019-04-25T19:32:29.869Z,18.29
2019-04-25T19:37:33.377Z,18.33
2019-04-25T19:42:41.124Z,17.96
2019-04-25T19:47:45.057Z,17.64
2019-04-25T19:52:48.318Z,17.65
2019-04-25T19:57:52.511Z,17.49
2019-04-25T20:03:05.603Z,17.10
2019-04-25T20:08:30.717Z,17.29
2019-04-25T20:13:33.903Z,17.17
2019-04-25T20:18:37.022Z,17.20
2019-04-25T20:23:40.113Z,17.13
2019-04-25T20:28:44.805Z,16.95
2019-04-25T20:34:00.245Z,16.80
2019-04-25T20:38:53.366Z,16.82
2019-04-25T20:43:57.057Z,16.90
2019-04-25T20:49:00.370Z,16.78
2019-04-25T20:54:03.541Z,16.57
2019-04-25T20:59:06.776Z,16.43
2019-04-25T21:04:29.656Z,15.92
2019-04-25T21:09:33.216Z,15.89
2019-04-25T21:15:11.020Z,16.13
2019-04-25T21:20:14.315Z,15.83
2019-04-25T21:25:17.381Z,15.68
2019-04-25T21:30:20.649Z,15.43
2019-04-25T21:35:24.226Z,15.46
2019-04-25T21:40:37.320Z,15.29
2019-04-25T21:45:41.050Z,14.97
2019-04-25T21:50:44.708Z,15.04
2019-04-25T21:55:47.899Z,15.25
2019-04-25T22:01:16.955Z,14.86
2019-04-25T22:06:20.402Z,15.13
2019-04-25T22:11:23.615Z,14.73
2019-04-25T22:16:27.517Z,14.25
2019-04-25T22:21:37.800Z,13.98
2019-04-25T22:26:36.229Z,13.88
2019-04-25T22:31:47.728Z,13.96
2019-04-25T22:36:51.117Z,13.62
2019-04-25T22:41:54.352Z,13.59
2019-04-25T22:46:58.015Z,13.75
2019-04-25T22:52:01.744Z,13.74
2019-04-25T22:57:06.387Z,13.38
2019-04-25T23:02:25.012Z,13.69
2019-04-25T23:07:29.286Z,13.43
2019-04-25T23:12:33.001Z,13.43
2019-04-25T23:17:36.215Z,13.24
2019-04-25T23:22:39.778Z,12.86
2019-04-25T23:28:03.637Z,12.78
2019-04-25T23:33:08.505Z,12.79
2019-04-25T23:38:13.763Z,12.39
2019-04-25T23:43:17.042Z,12.64
2019-04-25T23:48:20.713Z,12.51
2019-04-25T23:53:24.268Z,12.57
2019-04-25T23:58:27.459Z,12.49
